»·PEaware :: N313KP KSNA-KSNA

N313KP :: KSNA-KSNA

FLIGHT INFORMATION

Flight Status: Arrived
Operator: Privately registered:
United States
More flights under this callsign
Pilot: Erik A. (17503)
Aircraft: BEECH AIRCRAFT BONANZA
(BE35)
More flights by this aircraft type
Origin: KSNA John Wayne-Orange Co
United States
Destination: KSNA John Wayne-Orange Co
United States
More flights between these airports :: More routes between these airports
Route: SLI
File this flight plan on PilotEdge
Remarks: Rating I-1
Altitude:
(Current/Filed)
3,000ft
Speed:
(Current/Filed)
130kts
Departed: 12-Feb-20 02:23 PM
Arrived: 12-Feb-20 02:45 PM
Distance/Time
Traveled:
1nm/0:22
Distance/Time
To Go:
Arrived

Flight Plot

Page will automatically refresh every two minutes.


Map Options




Map Legend


Flown Route
Filed Route
Departure Airport
Arrival Airport
Navaid (VOR, NDB)
Fix

Horizontal Profiles

Position Reports

Time Latitude Longitude Heading Altitude Ground
Speed
12-Feb-20 13:53 33.666711 -117.872136 224 59ft 0kts
12-Feb-20 13:54 33.666711 -117.872136 224 59ft 0kts
12-Feb-20 13:55 33.666711 -117.872136 224 59ft 0kts
12-Feb-20 14:04 33.666705 -117.872143 224 59ft 0kts
12-Feb-20 14:05 33.666704 -117.872144 224 59ft 0kts
12-Feb-20 14:06 33.666703 -117.872146 224 59ft 0kts
12-Feb-20 14:07 33.666702 -117.872147 224 59ft 0kts
12-Feb-20 14:08 33.666701 -117.872148 224 59ft 0kts
12-Feb-20 14:09 33.666700 -117.872149 224 59ft 0kts
12-Feb-20 14:10 33.666699 -117.872151 224 59ft 0kts
12-Feb-20 14:11 33.666678 -117.872178 232 59ft 1kts
12-Feb-20 14:12 33.667071 -117.872801 351 59ft 5kts
12-Feb-20 14:13 33.669087 -117.870947 40 59ft 12kts
12-Feb-20 14:14 33.671836 -117.868312 29 59ft 11kts
12-Feb-20 14:14 33.673798 -117.867224 357 59ft 6kts
12-Feb-20 14:16 33.675612 -117.866155 29 59ft 6kts
12-Feb-20 14:17 33.677268 -117.865105 27 59ft 8kts
12-Feb-20 14:17 33.679128 -117.863929 27 59ft 8kts
12-Feb-20 14:19 33.679950 -117.863667 294 59ft 0kts
12-Feb-20 14:20 33.679952 -117.863671 294 59ft 0kts
12-Feb-20 14:20 33.679953 -117.863674 294 59ft 0kts
12-Feb-20 14:21 33.680118 -117.864167 241 59ft 3kts
12-Feb-20 14:23 33.670397 -117.870811 215 302ft 70kts
12-Feb-20 14:23 33.661633 -117.888503 244 950ft 80kts
12-Feb-20 14:24 33.653218 -117.912135 239 1686ft 78kts
12-Feb-20 14:25 33.647294 -117.927703 244 1978ft 100kts
12-Feb-20 14:26 33.638032 -117.962708 295 2479ft 108kts
12-Feb-20 14:27 33.665468 -117.960421 23 3042ft 122kts
12-Feb-20 14:28 33.699113 -117.944095 21 3123ft 134kts
12-Feb-20 14:29 33.733933 -117.926997 23 3079ft 139kts
12-Feb-20 14:30 33.770798 -117.909057 23 2927ft 136kts
12-Feb-20 14:31 33.804431 -117.892719 23 2934ft 127kts
12-Feb-20 14:32 33.836889 -117.876825 22 3133ft 135kts
12-Feb-20 14:33 33.873591 -117.858402 23 2974ft 143kts
12-Feb-20 14:34 33.903159 -117.835513 98 3053ft 129kts
12-Feb-20 14:35 33.895367 -117.792516 108 3032ft 123kts
12-Feb-20 14:36 33.877588 -117.766793 184 2927ft 114kts
12-Feb-20 14:37 33.845617 -117.769562 186 2882ft 113kts
12-Feb-20 14:38 33.815153 -117.781235 210 2872ft 126kts
12-Feb-20 14:39 33.783523 -117.800924 207 2333ft 128kts
12-Feb-20 14:40 33.752898 -117.820018 208 1631ft 117kts
12-Feb-20 14:41 33.733581 -117.832281 207 1179ft 111kts
12-Feb-20 14:42 33.707179 -117.848805 209 700ft 106kts
12-Feb-20 14:43 33.684310 -117.863386 203 142ft 65kts
12-Feb-20 14:44 33.674608 -117.868545 165 59ft 4kts
12-Feb-20 14:45 33.674409 -117.868463 154 59ft 0kts
12-Feb-20 14:46 33.673282 -117.867079 212 59ft 8kts
12-Feb-20 14:47 33.671840 -117.868285 210 59ft 6kts
12-Feb-20 14:48 33.670345 -117.869650 219 59ft 6kts
12-Feb-20 14:49 33.668878 -117.871150 221 59ft 6kts
12-Feb-20 14:50 33.667401 -117.872662 219 59ft 6kts
12-Feb-20 14:51 33.665714 -117.873793 174 59ft 7kts
12-Feb-20 14:52 33.665728 -117.873075 36 59ft 0kts
12-Feb-20 14:53 33.665730 -117.873074 36 59ft 0kts
12-Feb-20 14:54 33.665731 -117.873073 36 59ft 0kts
12-Feb-20 14:55 33.665733 -117.873071 36 59ft 0kts
12-Feb-20 14:56 33.665733 -117.873071 36 59ft 0kts

Navigation Log

Ident Type
Flight plan parsing failed, navigation log unavailable